Time;durP1;ratioP1;P1;durP2;ratioP2;P2;SDS_P1;SDS_P2;PMS_P1;PMS_P2;Temp;Humidity;BMP_temperature;BMP_pressure;BME280_temperature;BME280_humidity;BME280_pressure;Samples;Min_cycle;Max_cycle;Signal;HPM_P1;HPM_P2
2022/01/09 00:00:15;;;;;;;60.53;37.53;;;;;;;-144.47;100.00;61586.06;5031861;28;20030;-78
2022/01/09 00:02:40;;;;;;;61.38;38.33;;;;;;;-144.47;100.00;61586.06;5042396;28;20326;-76
2022/01/09 00:05:06;;;;;;;61.42;37.40;;;;;;;-144.47;100.00;61586.06;5041762;28;20037;-77
2022/01/09 00:07:32;;;;;;;62.42;38.35;;;;;;;-144.47;100.00;61586.06;5037980;28;20061;-78
2022/01/09 00:09:58;;;;;;;61.17;38.85;;;;;;;-144.47;100.00;61586.06;5040818;28;20140;-79
2022/01/09 00:12:24;;;;;;;59.05;37.03;;;;;;;-144.47;100.00;61586.06;5015807;28;20032;-79
2022/01/09 00:14:51;;;;;;;56.00;36.67;;;;;;;-144.47;100.00;61586.06;5028144;28;20486;-78
2022/01/09 00:17:16;;;;;;;57.75;37.38;;;;;;;-144.47;100.00;61586.06;5033437;28;20053;-79
2022/01/09 00:19:42;;;;;;;57.42;37.50;;;;;;;-144.47;100.00;61586.06;5033846;28;20473;-77
2022/01/09 00:22:08;;;;;;;63.83;39.35;;;;;;;-144.47;100.00;61586.06;5015682;28;20445;-77
2022/01/09 00:24:33;;;;;;;60.65;37.72;;;;;;;-144.47;100.00;61586.06;5032989;28;20029;-76
2022/01/09 00:26:59;;;;;;;60.15;37.53;;;;;;;-144.47;100.00;61586.06;5033394;28;20361;-79
2022/01/09 00:29:24;;;;;;;58.90;37.58;;;;;;;-144.47;100.00;61586.06;5015189;28;20049;-78
2022/01/09 00:31:50;;;;;;;59.10;37.75;;;;;;;-144.47;100.00;61586.06;5015630;28;20534;-78
2022/01/09 00:34:15;;;;;;;59.50;39.30;;;;;;;-144.47;100.00;61586.06;5033651;28;20033;-79
2022/01/09 00:36:41;;;;;;;58.67;38.17;;;;;;;-144.47;100.00;61586.06;5033984;28;20029;-80
2022/01/09 00:39:06;;;;;;;55.53;37.00;;;;;;;-144.47;100.00;61586.06;5033314;28;20104;-80
2022/01/09 00:41:32;;;;;;;68.25;39.95;;;;;;;-144.47;100.00;61586.06;5032324;28;20033;-77
2022/01/09 00:43:57;;;;;;;60.25;37.90;;;;;;;-144.47;100.00;61586.06;5033600;28;20080;-80
2022/01/09 00:46:23;;;;;;;58.60;37.25;;;;;;;-144.47;100.00;61586.06;5033969;28;20026;-78
2022/01/09 00:48:48;;;;;;;60.40;38.55;;;;;;;-144.47;100.00;61586.06;5014384;28;20037;-78
2022/01/09 00:51:14;;;;;;;60.92;37.42;;;;;;;-144.47;100.00;61586.06;5032202;28;20052;-78
2022/01/09 00:53:39;;;;;;;58.15;36.65;;;;;;;-144.47;100.00;61586.06;5032953;28;20049;-78
2022/01/09 00:56:05;;;;;;;56.13;35.75;;;;;;;-144.47;100.00;61586.06;5046512;22;20050;-79
2022/01/09 00:58:30;;;;;;;59.83;36.80;;;;;;;-144.47;100.00;61586.06;5030620;28;20626;-79
2022/01/09 01:00:56;;;;;;;59.53;37.53;;;;;;;-144.47;100.00;61586.06;5031671;28;20033;-80
2022/01/09 01:03:21;;;;;;;56.58;36.05;;;;;;;-144.47;100.00;61586.06;5031152;28;20033;-78
2022/01/09 01:05:47;;;;;;;58.03;36.70;;;;;;;-144.47;100.00;61586.06;5013586;28;20033;-78
2022/01/09 01:08:12;;;;;;;56.55;35.85;;;;;;;-144.47;100.00;61586.06;5031012;28;20029;-80
2022/01/09 01:10:38;;;;;;;57.10;37.25;;;;;;;-144.47;100.00;61586.06;5031138;28;20037;-78
2022/01/09 01:13:03;;;;;;;59.85;37.33;;;;;;;-144.47;100.00;61586.06;5031543;28;20065;-79
2022/01/09 01:15:29;;;;;;;56.50;36.03;;;;;;;-144.47;100.00;61586.06;5031142;28;20374;-79
2022/01/09 01:17:55;;;;;;;58.03;37.22;;;;;;;-144.47;100.00;61586.06;5030760;28;20037;-80
2022/01/09 01:20:22;;;;;;;55.53;36.65;;;;;;;-144.47;100.00;61586.06;5031090;28;20454;-79
2022/01/09 01:22:50;;;;;;;57.45;35.72;;;;;;;-144.47;100.00;61586.06;5013690;28;20403;-79
2022/01/09 01:25:18;;;;;;;55.70;36.33;;;;;;;-144.47;100.00;61586.06;5030912;28;20036;-79
2022/01/09 01:27:44;;;;;;;53.35;34.80;;;;;;;-144.47;100.00;61586.06;5031568;28;20052;-79
2022/01/09 01:30:10;;;;;;;54.55;33.70;;;;;;;-144.47;100.00;61586.06;5029836;28;20029;-79
2022/01/09 01:32:36;;;;;;;46.83;32.10;;;;;;;-144.47;100.00;61586.06;5030325;28;20037;-78
2022/01/09 01:35:02;;;;;;;48.15;33.20;;;;;;;-144.47;100.00;61586.06;5031467;28;20080;-78
2022/01/09 01:37:28;;;;;;;49.25;32.70;;;;;;;-144.47;100.00;61586.06;5030948;28;20037;-78
2022/01/09 01:39:53;;;;;;;48.63;32.50;;;;;;;-144.47;100.00;61586.06;5030753;28;20021;-77
2022/01/09 01:42:19;;;;;;;45.40;31.98;;;;;;;-144.47;100.00;61586.06;5031216;28;20099;-78
2022/01/09 01:44:46;;;;;;;47.28;31.58;;;;;;;-144.47;100.00;61586.06;5031789;28;20029;-79
2022/01/09 01:47:17;;;;;;;49.90;32.30;;;;;;;-144.47;100.00;61586.06;5030727;28;20029;-77
2022/01/09 01:49:42;;;;;;;49.67;31.25;;;;;;;-144.47;100.00;61586.06;5029999;28;20026;-79
2022/01/09 01:52:09;;;;;;;50.17;31.08;;;;;;;-144.47;100.00;61586.06;5028534;28;20184;-79
2022/01/09 01:54:35;;;;;;;53.20;32.92;;;;;;;-144.47;100.00;61586.06;5028632;28;20025;-79
2022/01/09 01:57:03;;;;;;;50.22;33.35;;;;;;;-144.47;100.00;61586.06;5029602;28;20500;-79
2022/01/09 01:59:28;;;;;;;47.85;30.95;;;;;;;-144.47;100.00;61586.06;5030712;28;20490;-79
2022/01/09 02:01:54;;;;;;;47.88;32.83;;;;;;;-144.47;100.00;61586.06;5031234;28;20149;-78
2022/01/09 02:04:19;;;;;;;47.05;31.70;;;;;;;-144.47;100.00;61586.06;5030747;28;20021;-79
2022/01/09 02:06:45;;;;;;;46.20;31.90;;;;;;;-144.47;100.00;61586.06;5031016;28;20113;-78
2022/01/09 02:09:10;;;;;;;46.53;31.23;;;;;;;-144.47;100.00;61586.06;5030683;28;20048;-79
2022/01/09 02:11:37;;;;;;;46.70;31.52;;;;;;;-144.47;100.00;61586.06;5030677;28;20026;-79
2022/01/09 02:14:02;;;;;;;44.60;31.33;;;;;;;-144.47;100.00;61586.06;5031098;28;20394;-79
2022/01/09 02:16:28;;;;;;;47.70;30.42;;;;;;;-144.47;100.00;61586.06;5030861;28;20040;-79
2022/01/09 02:18:54;;;;;;;45.47;31.90;;;;;;;-144.47;100.00;61586.06;5012862;28;20112;-79
2022/01/09 02:21:22;;;;;;;47.03;31.05;;;;;;;-144.47;100.00;61586.06;5030377;28;20021;-77
2022/01/09 02:23:49;;;;;;;43.50;29.17;;;;;;;-144.47;100.00;61586.06;5030739;28;20033;-80
2022/01/09 02:26:19;;;;;;;46.95;30.73;;;;;;;-144.47;100.00;61586.06;5030384;28;20033;-78
2022/01/09 02:28:46;;;;;;;54.05;32.72;;;;;;;-144.47;100.00;61586.06;5030727;28;20038;-77
2022/01/09 02:31:12;;;;;;;52.67;32.17;;;;;;;-144.47;100.00;61586.06;5031098;28;20033;-78
2022/01/09 02:33:38;;;;;;;53.50;32.75;;;;;;;-144.47;100.00;61586.06;5013155;28;20033;-78
2022/01/09 02:36:03;;;;;;;56.97;35.10;;;;;;;-144.47;100.00;61586.06;5012709;28;20041;-78
2022/01/09 02:38:29;;;;;;;59.45;36.50;;;;;;;-144.47;100.00;61586.06;5029940;28;20052;-79
2022/01/09 02:40:55;;;;;;;57.47;35.40;;;;;;;-144.47;100.00;61586.06;5030160;28;20045;-78
2022/01/09 02:43:21;;;;;;;59.60;36.03;;;;;;;-144.47;100.00;61586.06;5030007;28;20033;-77
2022/01/09 02:45:53;;;;;;;57.20;35.38;;;;;;;-144.47;100.00;61586.06;5030177;28;20030;-78
2022/01/09 02:48:20;;;;;;;59.53;36.50;;;;;;;-144.47;100.00;61586.06;5029888;28;20049;-78
2022/01/09 02:50:58;;;;;;;59.03;37.00;;;;;;;-144.47;100.00;61586.06;5030039;28;20036;-77
2022/01/09 02:53:26;;;;;;;58.35;35.97;;;;;;;-144.47;100.00;61586.06;5012273;28;20044;-78
2022/01/09 02:55:51;;;;;;;58.00;36.75;;;;;;;-144.47;100.00;61586.06;5029616;28;20037;-79
2022/01/09 02:58:17;;;;;;;58.17;36.78;;;;;;;-144.47;100.00;61586.06;5029884;28;20179;-79
2022/01/09 03:00:44;;;;;;;57.83;36.05;;;;;;;-144.47;100.00;61586.06;5029995;28;20040;-79
2022/01/09 03:03:11;;;;;;;60.10;37.05;;;;;;;-144.47;100.00;61586.06;5029917;28;20403;-79
2022/01/09 03:05:37;;;;;;;58.60;37.63;;;;;;;-144.47;100.00;61586.06;5029986;28;20037;-79
2022/01/09 03:08:05;;;;;;;65.10;37.40;;;;;;;-144.47;100.00;61586.06;5030036;28;20514;-79
2022/01/09 03:10:30;;;;;;;62.10;37.63;;;;;;;-144.47;100.00;61586.06;5029496;28;20034;-79
2022/01/09 03:12:57;;;;;;;61.72;38.90;;;;;;;-144.47;100.00;61586.06;5030048;28;20042;-79
2022/01/09 03:15:24;;;;;;;59.53;38.53;;;;;;;-144.47;100.00;61586.06;5029723;28;20100;-79
2022/01/09 03:17:50;;;;;;;61.53;39.40;;;;;;;-144.47;100.00;61586.06;5030108;28;20071;-78
2022/01/09 03:20:18;;;;;;;63.75;39.83;;;;;;;-144.47;100.00;61586.06;5011956;28;20077;-79
2022/01/09 03:22:44;;;;;;;62.50;37.60;;;;;;;-144.47;100.00;61586.06;5033675;28;20363;-79
2022/01/09 03:25:11;;;;;;;61.55;39.03;;;;;;;-144.47;100.00;61586.06;5033689;28;20394;-79
2022/01/09 03:27:38;;;;;;;60.53;37.65;;;;;;;-144.47;100.00;61586.06;5033891;28;20059;-79
2022/01/09 03:30:07;;;;;;;59.25;38.22;;;;;;;-144.47;100.00;61586.06;5035785;28;20033;-78
2022/01/09 03:32:34;;;;;;;62.75;37.28;;;;;;;-144.47;100.00;61586.06;5035721;28;20059;-78
2022/01/09 03:34:59;;;;;;;60.42;37.42;;;;;;;-144.47;100.00;61586.06;5035619;28;20136;-78
2022/01/09 03:37:25;;;;;;;62.08;37.53;;;;;;;-144.47;100.00;61586.06;5034905;28;20112;-78
2022/01/09 03:39:52;;;;;;;59.60;37.05;;;;;;;-144.47;100.00;61586.06;5034386;28;20029;-78
2022/01/09 03:42:18;;;;;;;65.75;38.05;;;;;;;-144.47;100.00;61586.06;5033375;28;20434;-79
2022/01/09 03:44:43;;;;;;;57.85;37.50;;;;;;;-144.47;100.00;61586.06;5033996;28;20049;-79
2022/01/09 03:47:09;;;;;;;62.08;39.28;;;;;;;-144.47;100.00;61586.06;5033620;28;20037;-79
2022/01/09 03:49:35;;;;;;;59.78;39.08;;;;;;;-144.47;100.00;61586.06;5033509;28;20037;-78
2022/01/09 03:52:01;;;;;;;59.38;37.25;;;;;;;-144.47;100.00;61586.06;5033586;28;20029;-79
2022/01/09 03:54:27;;;;;;;62.88;38.95;;;;;;;-144.47;100.00;61586.06;5033367;28;20033;-79
2022/01/09 03:56:52;;;;;;;59.35;37.38;;;;;;;-144.47;100.00;61586.06;5033157;28;20116;-78
2022/01/09 03:59:19;;;;;;;56.42;36.80;;;;;;;-144.47;100.00;61586.06;5033123;28;20034;-78
2022/01/09 04:01:45;;;;;;;62.28;37.63;;;;;;;-144.47;100.00;61586.06;5033530;28;20026;-79
2022/01/09 04:04:10;;;;;;;60.33;37.10;;;;;;;-144.47;100.00;61586.06;5033172;28;20091;-78
2022/01/09 04:06:39;;;;;;;59.60;38.13;;;;;;;-144.47;100.00;61586.06;5033224;28;20029;-78
2022/01/09 04:09:08;;;;;;;59.15;37.90;;;;;;;-144.47;100.00;61586.06;5015903;28;20449;-78
2022/01/09 04:11:38;;;;;;;65.85;39.13;;;;;;;-144.47;100.00;61586.06;5032888;28;20449;-78
2022/01/09 04:14:05;;;;;;;58.63;37.92;;;;;;;-144.47;100.00;61586.06;5033023;28;20029;-79
2022/01/09 04:16:31;;;;;;;58.50;36.90;;;;;;;-144.47;100.00;61586.06;5032870;28;20108;-78
2022/01/09 04:18:56;;;;;;;58.13;37.40;;;;;;;-144.47;100.00;61586.06;5033093;28;20568;-77
2022/01/09 04:21:21;;;;;;;57.58;36.00;;;;;;;-144.47;100.00;61586.06;5014939;28;20465;-77
2022/01/09 04:23:47;;;;;;;60.85;36.78;;;;;;;-144.47;100.00;61586.06;5014924;28;20113;-78
2022/01/09 04:26:12;;;;;;;60.72;37.13;;;;;;;-144.47;100.00;61586.06;5032230;28;20057;-79
2022/01/09 04:28:38;;;;;;;60.70;38.55;;;;;;;-144.47;100.00;61586.06;5032890;28;20060;-78
2022/01/09 04:31:03;;;;;;;60.05;38.55;;;;;;;-144.47;100.00;61586.06;5032930;28;20041;-79
2022/01/09 04:33:29;;;;;;;64.50;40.38;;;;;;;-144.47;100.00;61586.06;5031287;28;20163;-79
2022/01/09 04:35:54;;;;;;;61.05;38.88;;;;;;;-144.47;100.00;61586.06;5014964;28;20041;-78
2022/01/09 04:38:20;;;;;;;60.13;39.03;;;;;;;-144.47;100.00;61586.06;5032329;28;20035;-79
2022/01/09 04:40:45;;;;;;;60.60;37.95;;;;;;;-144.47;100.00;61586.06;5032399;28;20041;-78
2022/01/09 04:43:12;;;;;;;61.13;38.38;;;;;;;-144.47;100.00;61586.06;5014594;28;20041;-78
2022/01/09 04:45:38;;;;;;;64.95;39.85;;;;;;;-144.47;100.00;61586.06;5028577;28;20033;-78
2022/01/09 04:48:07;;;;;;;66.32;38.78;;;;;;;-144.47;100.00;61586.06;5032455;28;20033;-79
2022/01/09 04:50:36;;;;;;;61.42;39.30;;;;;;;-144.47;100.00;61586.06;5014518;28;20908;-78
2022/01/09 04:53:07;;;;;;;61.38;38.50;;;;;;;-144.47;100.00;61586.06;5032571;28;20049;-79
2022/01/09 04:55:38;;;;;;;61.28;38.88;;;;;;;-144.47;100.00;61586.06;5031791;28;20144;-78
2022/01/09 04:58:04;;;;;;;61.67;38.72;;;;;;;-144.47;100.00;61586.06;5032523;28;20033;-78
2022/01/09 05:00:29;;;;;;;62.90;40.38;;;;;;;-144.47;100.00;61586.06;5032194;28;20032;-78
2022/01/09 05:02:55;;;;;;;59.83;38.10;;;;;;;-144.47;100.00;61586.06;5032538;28;20037;-79
2022/01/09 05:05:21;;;;;;;62.58;40.47;;;;;;;-144.47;100.00;61586.06;5032030;28;20032;-79
2022/01/09 05:07:47;;;;;;;61.25;39.05;;;;;;;-144.47;100.00;61586.06;5032632;28;20374;-79
2022/01/09 05:10:13;;;;;;;58.90;39.95;;;;;;;-144.47;100.00;61586.06;5032296;28;20125;-78
2022/01/09 05:12:39;;;;;;;68.10;40.67;;;;;;;-144.47;100.00;61586.06;5032946;28;20091;-78
2022/01/09 05:15:07;;;;;;;64.13;41.45;;;;;;;-144.47;100.00;61586.06;5032335;28;20036;-78
2022/01/09 05:17:32;;;;;;;61.65;39.90;;;;;;;-144.47;100.00;61586.06;5031584;28;20074;-78
2022/01/09 05:19:58;;;;;;;64.80;40.95;;;;;;;-144.47;100.00;61586.06;5031871;28;20429;-79
2022/01/09 05:22:28;;;;;;;65.47;41.53;;;;;;;-144.47;100.00;61586.06;5031570;28;20138;-79
2022/01/09 05:24:54;;;;;;;67.85;41.35;;;;;;;-144.47;100.00;61586.06;5031839;28;20029;-79
2022/01/09 05:27:21;;;;;;;66.45;41.13;;;;;;;-144.47;100.00;61586.06;5031367;28;20049;-79
2022/01/09 05:29:47;;;;;;;65.70;41.05;;;;;;;-144.47;100.00;61586.06;5014331;28;20026;-79
2022/01/09 05:32:12;;;;;;;69.45;42.17;;;;;;;-144.47;100.00;61586.06;5013777;28;20034;-78
2022/01/09 05:34:38;;;;;;;66.90;40.85;;;;;;;-144.47;100.00;61586.06;5031773;28;20037;-78
2022/01/09 05:37:04;;;;;;;62.10;41.47;;;;;;;-144.47;100.00;61586.06;5031780;28;20057;-79
2022/01/09 05:39:34;;;;;;;65.05;41.55;;;;;;;-144.47;100.00;61586.06;5031345;28;20044;-79
2022/01/09 05:42:02;;;;;;;60.90;40.58;;;;;;;-144.47;100.00;61586.06;5031337;28;20122;-79
2022/01/09 05:44:27;;;;;;;62.30;38.45;;;;;;;-144.47;100.00;61586.06;5030846;28;20043;-79
2022/01/09 05:46:52;;;;;;;64.88;39.15;;;;;;;-144.47;100.00;61586.06;5031324;28;20037;-78
2022/01/09 05:49:18;;;;;;;59.33;39.03;;;;;;;-144.47;100.00;61586.06;5031190;28;20243;-79
2022/01/09 05:51:43;;;;;;;63.28;39.35;;;;;;;-144.47;100.00;61586.06;5031554;28;20026;-79
2022/01/09 05:54:09;;;;;;;61.58;38.85;;;;;;;-144.47;100.00;61586.06;5031034;28;20478;-79
2022/01/09 05:56:35;;;;;;;63.05;40.17;;;;;;;-144.47;100.00;61586.06;5030663;28;20119;-79
2022/01/09 05:59:01;;;;;;;61.53;39.03;;;;;;;-144.47;100.00;61586.06;5031066;28;20029;-78
2022/01/09 06:01:27;;;;;;;61.95;39.25;;;;;;;-144.47;100.00;61586.06;5030842;28;20505;-79
2022/01/09 06:03:52;;;;;;;60.20;39.13;;;;;;;-144.47;100.00;61586.06;5031191;28;20116;-79
2022/01/09 06:06:18;;;;;;;64.65;40.15;;;;;;;-144.47;100.00;61586.06;5013046;28;20029;-79
2022/01/09 06:08:44;;;;;;;61.33;39.80;;;;;;;-144.47;100.00;61586.06;5030952;28;20493;-79
2022/01/09 06:11:09;;;;;;;62.20;40.85;;;;;;;-144.47;100.00;61586.06;5029539;28;20064;-79
2022/01/09 06:13:35;;;;;;;63.40;40.15;;;;;;;-144.47;100.00;61586.06;5030806;28;20455;-79
2022/01/09 06:16:00;;;;;;;65.50;41.72;;;;;;;-144.47;100.00;61586.06;5030943;28;20029;-79
2022/01/09 06:18:26;;;;;;;63.25;40.97;;;;;;;-144.47;100.00;61586.06;5030543;28;20515;-78
2022/01/09 06:20:51;;;;;;;64.90;42.22;;;;;;;-144.47;100.00;61586.06;5030973;28;20033;-78
2022/01/09 06:23:20;;;;;;;65.28;41.30;;;;;;;-144.47;100.00;61586.06;5030471;28;20056;-79
2022/01/09 06:25:52;;;;;;;70.50;43.13;;;;;;;-144.47;100.00;61586.06;5030505;28;20032;-78
2022/01/09 06:28:18;;;;;;;65.68;40.63;;;;;;;-144.47;100.00;61586.06;5030293;28;20103;-79
2022/01/09 06:30:44;;;;;;;65.47;40.92;;;;;;;-144.47;100.00;61586.06;5030983;28;20034;-79
2022/01/09 06:33:11;;;;;;;60.90;39.72;;;;;;;-144.47;100.00;61586.06;5030658;28;20498;-78
2022/01/09 06:35:37;;;;;;;65.63;41.45;;;;;;;-144.47;100.00;61586.06;5030748;28;20038;-79
2022/01/09 06:38:03;;;;;;;66.43;40.42;;;;;;;-144.47;100.00;61586.06;5030541;28;20064;-79
2022/01/09 06:40:29;;;;;;;68.22;40.35;;;;;;;-144.47;100.00;61586.06;5029553;28;20041;-80
2022/01/09 06:42:55;;;;;;;63.47;39.42;;;;;;;-144.47;100.00;61586.06;5030697;28;20449;-79
2022/01/09 06:45:23;;;;;;;64.78;40.30;;;;;;;-144.47;100.00;61586.06;5029755;28;20028;-79
2022/01/09 06:47:48;;;;;;;63.75;40.55;;;;;;;-144.47;100.00;61586.06;5030214;28;20073;-79
2022/01/09 06:50:15;;;;;;;62.40;39.92;;;;;;;-144.47;100.00;61586.06;5030153;28;20060;-78
2022/01/09 06:52:41;;;;;;;69.47;42.08;;;;;;;-144.47;100.00;61586.06;5012665;28;20029;-79
2022/01/09 06:55:08;;;;;;;62.65;40.47;;;;;;;-144.47;100.00;61586.06;5029670;28;20239;-79
2022/01/09 06:57:34;;;;;;;66.47;41.72;;;;;;;-144.47;100.00;61586.06;5011713;28;20052;-79
2022/01/09 06:59:59;;;;;;;67.28;41.13;;;;;;;-144.47;100.00;61586.06;5030328;28;20486;-79
2022/01/09 07:02:25;;;;;;;64.60;40.95;;;;;;;-144.47;100.00;61586.06;5030127;28;20068;-79
2022/01/09 07:04:50;;;;;;;64.68;41.10;;;;;;;-144.47;100.00;61586.06;5030420;28;20474;-79
2022/01/09 07:07:16;;;;;;;66.45;42.22;;;;;;;-144.47;100.00;61586.06;5029761;28;20036;-77
2022/01/09 07:09:41;;;;;;;65.15;41.55;;;;;;;-144.47;100.00;61586.06;5030051;28;20136;-77
2022/01/09 07:12:08;;;;;;;61.08;38.65;;;;;;;-144.47;100.00;61586.06;5029767;28;20022;-79
2022/01/09 07:14:34;;;;;;;66.22;41.53;;;;;;;-144.47;100.00;61586.06;5029895;28;20033;-79
2022/01/09 07:17:00;;;;;;;64.57;40.50;;;;;;;-144.47;100.00;61586.06;5030035;28;20033;-79
2022/01/09 07:19:25;;;;;;;66.25;40.72;;;;;;;-144.47;100.00;61586.06;5029783;28;20044;-79
2022/01/09 07:21:50;;;;;;;64.75;40.65;;;;;;;-144.47;100.00;61586.06;5031167;28;20470;-78
2022/01/09 07:24:16;;;;;;;65.57;41.05;;;;;;;-144.47;100.00;61586.06;5029805;28;20048;-79
2022/01/09 07:26:41;;;;;;;63.67;41.10;;;;;;;-144.47;100.00;61586.06;5029953;28;20036;-79
2022/01/09 07:29:07;;;;;;;67.10;41.13;;;;;;;-144.47;100.00;61586.06;5029592;28;20222;-79
2022/01/09 07:31:32;;;;;;;66.30;40.58;;;;;;;-144.47;100.00;61586.06;5029596;28;20076;-79
2022/01/09 07:33:58;;;;;;;66.57;40.30;;;;;;;-144.47;100.00;61586.06;5012157;28;20391;-80
2022/01/09 07:36:23;;;;;;;67.35;42.85;;;;;;;-144.47;100.00;61586.06;5029593;28;20520;-80
2022/01/09 07:38:48;;;;;;;61.90;40.42;;;;;;;-144.47;100.00;61586.06;5029945;28;20045;-79
2022/01/09 07:41:15;;;;;;;64.57;41.15;;;;;;;-144.47;100.00;61586.06;5029870;28;20041;-80
2022/01/09 07:43:41;;;;;;;64.47;41.25;;;;;;;-144.47;100.00;61586.06;5027320;28;20033;-79
2022/01/09 07:46:06;;;;;;;64.85;40.95;;;;;;;-144.47;100.00;61586.06;5029418;28;20036;-79
2022/01/09 07:48:32;;;;;;;67.68;41.50;;;;;;;-144.47;100.00;61586.06;5029633;28;20037;-79
2022/01/09 07:50:57;;;;;;;62.45;40.78;;;;;;;-144.47;100.00;61586.06;5027931;28;20037;-80
2022/01/09 07:53:23;;;;;;;66.63;41.10;;;;;;;-144.47;100.00;61586.06;5029097;28;20386;-78
2022/01/09 07:55:51;;;;;;;69.15;41.90;;;;;;;-144.47;100.00;61586.06;5029331;28;20048;-79
2022/01/09 07:58:17;;;;;;;66.30;41.15;;;;;;;-144.47;100.00;61586.06;5029098;28;20389;-79
2022/01/09 08:00:43;;;;;;;65.50;40.80;;;;;;;-144.47;100.00;61586.06;5029464;28;20045;-79
2022/01/09 08:03:10;;;;;;;67.55;40.45;;;;;;;-144.47;100.00;61586.06;5029382;28;20029;-79
2022/01/09 08:05:35;;;;;;;63.15;38.92;;;;;;;-144.47;100.00;61586.06;5029766;28;20061;-79
2022/01/09 08:08:01;;;;;;;61.47;41.15;;;;;;;-144.47;100.00;61586.06;5031774;28;20076;-79
2022/01/09 08:10:26;;;;;;;59.65;40.08;;;;;;;-144.47;100.00;61586.06;5033467;28;20053;-79
2022/01/09 08:12:52;;;;;;;56.55;36.88;;;;;;;-144.47;100.00;61586.06;5033086;28;20453;-80
2022/01/09 08:15:17;;;;;;;65.57;41.35;;;;;;;-144.47;100.00;61586.06;5015375;28;20892;-80
2022/01/09 08:17:46;;;;;;;60.13;39.53;;;;;;;-144.47;100.00;61586.06;5032961;28;20312;-79
2022/01/09 08:20:14;;;;;;;61.63;39.53;;;;;;;-144.47;100.00;61586.06;5025803;28;20434;-80
2022/01/09 08:22:41;;;;;;;59.63;40.65;;;;;;;-144.47;100.00;61586.06;5014811;28;20080;-76
2022/01/09 08:25:09;;;;;;;60.03;39.55;;;;;;;-144.47;100.00;61586.06;5014367;28;20040;-79
2022/01/09 08:27:35;;;;;;;60.97;39.17;;;;;;;-144.47;100.00;61586.06;5032135;28;20041;-77
2022/01/09 08:30:00;;;;;;;64.00;42.67;;;;;;;-144.47;100.00;61586.06;5032491;28;20032;-79
2022/01/09 08:32:26;;;;;;;67.57;41.42;;;;;;;-144.47;100.00;61586.06;5032782;28;20584;-79
2022/01/09 08:34:52;;;;;;;63.95;41.08;;;;;;;-144.47;100.00;61586.06;5032590;28;20116;-77
2022/01/09 08:37:17;;;;;;;65.00;40.85;;;;;;;-144.47;100.00;61586.06;5032111;28;20136;-76
2022/01/09 08:39:44;;;;;;;63.45;41.72;;;;;;;-144.47;100.00;61586.06;5014682;28;20045;-77
2022/01/09 08:42:10;;;;;;;63.78;41.95;;;;;;;-144.47;100.00;61586.06;5014600;28;20393;-78
2022/01/09 08:44:37;;;;;;;63.95;40.88;;;;;;;-144.47;100.00;61586.06;5033072;28;20032;-77
2022/01/09 08:47:03;;;;;;;69.05;41.90;;;;;;;-144.47;100.00;61586.06;5032620;28;20045;-78
2022/01/09 08:49:28;;;;;;;65.18;42.28;;;;;;;-144.47;100.00;61586.06;5031927;28;20124;-79
2022/01/09 08:51:55;;;;;;;63.78;41.92;;;;;;;-144.47;100.00;61586.06;5031783;28;20108;-80
2022/01/09 08:54:21;;;;;;;61.05;41.33;;;;;;;-144.47;100.00;61586.06;5032421;28;20022;-80
2022/01/09 08:56:46;;;;;;;67.75;44.35;;;;;;;-144.47;100.00;61586.06;5033487;28;20053;-79
2022/01/09 08:59:12;;;;;;;67.45;42.83;;;;;;;-144.47;100.00;61586.06;5032590;28;20339;-81
2022/01/09 09:01:38;;;;;;;64.95;42.97;;;;;;;-144.47;100.00;61586.06;5028609;28;20037;-78
2022/01/09 09:04:05;;;;;;;69.53;44.97;;;;;;;-144.47;100.00;61586.06;5029903;28;20034;-78
2022/01/09 09:06:31;;;;;;;68.78;44.38;;;;;;;-144.47;100.00;61586.06;5030153;28;20083;-78
2022/01/09 09:08:56;;;;;;;69.97;44.30;;;;;;;-144.47;100.00;61586.06;5014608;28;20120;-77
2022/01/09 09:11:22;;;;;;;69.72;45.65;;;;;;;-144.47;100.00;61586.06;5032711;28;20390;-78
2022/01/09 09:13:48;;;;;;;69.78;44.92;;;;;;;-144.47;100.00;61586.06;5033314;28;20029;-79
2022/01/09 09:16:15;;;;;;;69.45;43.90;;;;;;;-144.47;100.00;61586.06;5034976;28;20511;-78
2022/01/09 09:18:43;;;;;;;70.13;45.10;;;;;;;-144.47;100.00;61586.06;5011725;28;20028;-78
2022/01/09 09:21:09;;;;;;;69.57;43.72;;;;;;;-144.47;100.00;61586.06;5015995;28;20056;-79
2022/01/09 09:23:36;;;;;;;69.75;44.15;;;;;;;-144.47;100.00;61586.06;5032785;28;20095;-78
2022/01/09 09:26:02;;;;;;;71.40;45.13;;;;;;;-144.47;100.00;61586.06;5033550;28;20380;-79
2022/01/09 09:28:28;;;;;;;64.95;44.22;;;;;;;-144.47;100.00;61586.06;5033189;28;20069;-79
2022/01/09 09:30:53;;;;;;;67.40;43.17;;;;;;;-144.47;100.00;61586.06;5032768;28;20153;-76
2022/01/09 09:33:19;;;;;;;70.80;43.60;;;;;;;-144.47;100.00;61586.06;5033104;28;20112;-76
2022/01/09 09:35:45;;;;;;;70.50;43.55;;;;;;;-144.47;100.00;61586.06;5033017;28;20029;-78
2022/01/09 09:38:11;;;;;;;69.20;43.95;;;;;;;-144.47;100.00;61586.06;5034628;28;20029;-78
2022/01/09 09:40:37;;;;;;;69.18;42.55;;;;;;;-144.47;100.00;61586.06;5036102;28;20040;-88
2022/01/09 09:43:03;;;;;;;70.45;43.50;;;;;;;-144.47;100.00;61586.06;5030256;28;20486;-79
2022/01/09 09:45:28;;;;;;;66.53;43.05;;;;;;;-144.47;100.00;61586.06;5030450;28;20034;-79
2022/01/09 09:47:54;;;;;;;64.60;43.65;;;;;;;-144.47;100.00;61586.06;5012327;28;20095;-79
2022/01/09 09:50:21;;;;;;;71.78;45.25;;;;;;;-144.47;100.00;61586.06;5020023;28;20457;-79
2022/01/09 09:52:48;;;;;;;64.85;43.63;;;;;;;-144.47;100.00;61586.06;5020206;28;20034;-79
2022/01/09 09:55:15;;;;;;;68.55;43.85;;;;;;;-144.47;100.00;61586.06;5016376;28;20049;-79
2022/01/09 09:57:40;;;;;;;69.22;43.47;;;;;;;-144.47;100.00;61586.06;5016642;28;20044;-79
2022/01/09 10:00:12;;;;;;;68.22;43.88;;;;;;;-144.47;100.00;61586.06;5000117;28;20033;-76
2022/01/09 10:02:46;;;;;;;63.47;41.97;;;;;;;-144.47;100.00;61586.06;5016461;28;20099;-77
2022/01/09 10:05:21;;;;;;;69.50;45.65;;;;;;;-144.47;100.00;61586.06;5019729;28;20026;-79
2022/01/09 10:07:46;;;;;;;64.30;42.33;;;;;;;-144.47;100.00;61586.06;5016565;28;20045;-78
2022/01/09 10:10:20;;;;;;;67.00;43.05;;;;;;;-144.47;100.00;61586.06;5016791;28;20104;-79
2022/01/09 10:12:47;;;;;;;60.42;42.03;;;;;;;-144.47;100.00;61586.06;5016964;28;20026;-77
2022/01/09 10:15:18;;;;;;;65.60;44.40;;;;;;;-144.47;100.00;61586.06;5016519;28;20037;-78
2022/01/09 10:17:49;;;;;;;60.55;42.58;;;;;;;-144.47;100.00;61586.06;5016876;28;20064;-77
2022/01/09 10:20:20;;;;;;;72.72;44.72;;;;;;;-144.47;100.00;61586.06;5019020;28;20116;-77
2022/01/09 10:22:50;;;;;;;69.05;44.17;;;;;;;-144.47;100.00;61586.06;5020813;28;20048;-77
2022/01/09 10:25:18;;;;;;;64.05;44.50;;;;;;;-144.47;100.00;61586.06;5018034;28;20038;-78
2022/01/09 10:27:46;;;;;;;64.30;42.92;;;;;;;-144.47;100.00;61586.06;5017645;28;20045;-78
2022/01/09 10:30:14;;;;;;;71.43;44.28;;;;;;;-144.47;100.00;61586.06;5019122;28;20503;-77
2022/01/09 10:32:40;;;;;;;66.88;44.20;;;;;;;-144.47;100.00;61586.06;5016552;28;20064;-79
2022/01/09 10:35:08;;;;;;;65.60;42.78;;;;;;;-144.47;100.00;61586.06;5018615;28;20129;-77
2022/01/09 10:37:35;;;;;;;64.15;44.22;;;;;;;-144.47;100.00;61586.06;5020776;28;20116;-79
2022/01/09 10:40:03;;;;;;;64.85;43.55;;;;;;;-144.47;100.00;61586.06;5016118;28;20034;-79
2022/01/09 10:42:28;;;;;;;64.45;44.17;;;;;;;-144.47;100.00;61586.06;5017107;28;20034;-78
2022/01/09 10:44:54;;;;;;;61.72;41.35;;;;;;;-144.47;100.00;61586.06;5003660;28;20528;-76
2022/01/09 10:47:20;;;;;;;64.25;43.58;;;;;;;-144.47;100.00;61586.06;5019950;28;20500;-78
2022/01/09 10:49:48;;;;;;;68.70;44.67;;;;;;;-144.47;100.00;61586.06;5017665;28;20545;-77